createdAt,value
2019-05-17T00:00:27.725Z,76.45
2019-05-17T00:02:57.153Z,76.64
2019-05-17T00:05:26.562Z,77.00
2019-05-17T00:07:56.655Z,77.43
2019-05-17T00:10:26.460Z,77.93
2019-05-17T00:12:56.408Z,77.61
2019-05-17T00:15:27.359Z,76.76
2019-05-17T00:17:57.081Z,76.19
2019-05-17T00:20:26.655Z,76.23
2019-05-17T00:22:57.409Z,76.89
2019-05-17T00:25:27.412Z,77.27
2019-05-17T00:27:56.470Z,77.29
2019-05-17T00:30:26.573Z,77.12
2019-05-17T00:32:56.973Z,77.21
2019-05-17T00:35:26.757Z,77.23
2019-05-17T00:37:57.103Z,77.19
2019-05-17T00:40:27.027Z,77.46
2019-05-17T00:42:57.085Z,78.13
2019-05-17T00:45:26.717Z,78.49
2019-05-17T00:47:57.253Z,77.91
2019-05-17T00:50:27.506Z,76.61
2019-05-17T00:52:56.711Z,76.75
2019-05-17T00:55:26.820Z,77.52
2019-05-17T00:57:56.484Z,77.51
2019-05-17T01:00:27.834Z,78.51
2019-05-17T01:02:57.367Z,79.85
2019-05-17T01:05:27.469Z,80.18
2019-05-17T01:07:57.335Z,79.57
2019-05-17T01:10:27.233Z,79.41
2019-05-17T01:12:57.521Z,78.69
2019-05-17T01:15:27.320Z,78.60
2019-05-17T01:17:56.411Z,78.30
2019-05-17T01:20:27.578Z,78.27
2019-05-17T01:22:56.656Z,78.56
2019-05-17T01:25:27.273Z,78.73
2019-05-17T01:27:56.418Z,78.55
2019-05-17T01:30:26.623Z,78.73
2019-05-17T01:32:57.012Z,78.96
2019-05-17T01:35:26.614Z,78.60
2019-05-17T01:37:56.500Z,77.96
2019-05-17T01:40:26.448Z,78.01
2019-05-17T01:42:55.363Z,77.35
2019-05-17T01:45:24.122Z,76.83
2019-05-17T01:47:52.964Z,77.57
2019-05-17T01:50:21.724Z,78.09
2019-05-17T01:52:50.525Z,78.53
2019-05-17T01:55:19.325Z,78.45
2019-05-17T01:57:48.106Z,77.94
2019-05-17T02:00:18.646Z,77.70
2019-05-17T02:02:49.011Z,76.78
2019-05-17T02:05:18.507Z,77.07
2019-05-17T02:07:47.345Z,77.08
2019-05-17T02:10:16.912Z,77.57
2019-05-17T02:12:49.036Z,77.78
2019-05-17T02:15:17.172Z,77.83
2019-05-17T02:17:46.790Z,78.13
2019-05-17T02:20:17.866Z,78.14
2019-05-17T02:22:47.359Z,77.94
2019-05-17T02:25:17.121Z,77.79
2019-05-17T02:27:46.129Z,77.98
2019-05-17T02:30:15.908Z,78.36
2019-05-17T02:32:45.877Z,78.42
2019-05-17T02:35:16.061Z,78.51
2019-05-17T02:37:44.944Z,78.35
2019-05-17T02:40:15.697Z,77.96
2019-05-17T02:42:44.648Z,77.20
2019-05-17T02:45:16.269Z,78.49
2019-05-17T02:47:45.047Z,78.70
2019-05-17T02:50:14.066Z,78.04
2019-05-17T02:52:44.109Z,78.38
2019-05-17T02:55:14.182Z,78.38
2019-05-17T02:57:43.741Z,78.89
2019-05-17T03:00:14.165Z,78.99
2019-05-17T03:02:43.781Z,79.43
2019-05-17T03:05:14.707Z,79.42
2019-05-17T03:07:44.298Z,79.79
2019-05-17T03:10:22.821Z,80.00
2019-05-17T03:12:44.834Z,79.49
2019-05-17T03:15:14.543Z,79.06
2019-05-17T03:17:43.994Z,79.01
2019-05-17T03:20:14.123Z,79.09
2019-05-17T03:22:43.889Z,78.48
2019-05-17T03:25:14.422Z,77.79
2019-05-17T03:27:43.886Z,77.98
2019-05-17T03:30:17.351Z,78.42
2019-05-17T03:32:48.082Z,78.56
2019-05-17T03:35:17.714Z,78.50
2019-05-17T03:37:46.225Z,77.84
2019-05-17T03:40:35.040Z,77.72
2019-05-17T03:42:45.495Z,77.30
2019-05-17T03:45:14.567Z,76.59
2019-05-17T03:47:44.627Z,77.10
2019-05-17T03:50:14.589Z,77.39
2019-05-17T03:52:44.734Z,77.19
2019-05-17T03:55:14.019Z,77.95
2019-05-17T03:57:44.114Z,78.18
2019-05-17T04:00:15.223Z,78.34
2019-05-17T04:02:44.905Z,78.22
2019-05-17T04:05:14.080Z,78.44
2019-05-17T04:07:43.789Z,78.31
2019-05-17T04:10:15.644Z,78.36
2019-05-17T04:12:44.703Z,79.29
2019-05-17T04:15:14.205Z,79.45
2019-05-17T04:17:43.897Z,79.14
2019-05-17T04:20:14.217Z,78.46
2019-05-17T04:22:44.826Z,78.17
2019-05-17T04:25:14.368Z,77.55
2019-05-17T04:27:44.060Z,77.34
2019-05-17T04:30:14.624Z,77.42
2019-05-17T04:32:44.581Z,77.82
2019-05-17T04:35:14.026Z,78.50
2019-05-17T04:37:44.488Z,78.77
2019-05-17T04:40:14.586Z,78.64
2019-05-17T04:42:44.504Z,78.52
2019-05-17T04:45:13.887Z,77.49
2019-05-17T04:47:44.336Z,76.26
2019-05-17T04:50:14.204Z,76.53
2019-05-17T04:52:43.672Z,76.22
2019-05-17T04:55:13.871Z,76.28
2019-05-17T04:57:44.195Z,76.58
2019-05-17T05:00:13.970Z,76.82
2019-05-17T05:02:44.047Z,75.96
2019-05-17T05:05:14.853Z,76.01
2019-05-17T05:07:43.992Z,76.35
2019-05-17T05:10:14.443Z,76.70
2019-05-17T05:12:44.201Z,76.68
2019-05-17T05:15:13.974Z,76.30
2019-05-17T05:17:43.169Z,75.35
2019-05-17T05:20:13.683Z,74.86
2019-05-17T05:22:43.235Z,74.69
2019-05-17T05:25:12.709Z,75.12
2019-05-17T05:27:42.755Z,74.67
2019-05-17T05:30:12.482Z,74.88
2019-05-17T05:32:42.709Z,75.58
2019-05-17T05:35:12.670Z,76.02
2019-05-17T05:37:42.627Z,75.14
2019-05-17T05:40:13.064Z,74.62
2019-05-17T05:42:42.829Z,74.35
2019-05-17T05:45:12.371Z,74.95
2019-05-17T05:47:42.309Z,75.63
2019-05-17T05:50:12.735Z,76.07
2019-05-17T05:52:42.456Z,75.76
2019-05-17T05:55:12.716Z,75.26
2019-05-17T05:57:42.224Z,74.95
2019-05-17T06:00:13.285Z,74.74
2019-05-17T06:02:42.357Z,74.09
2019-05-17T06:05:14.757Z,74.55
2019-05-17T06:07:42.501Z,74.36
2019-05-17T06:10:12.881Z,74.37
2019-05-17T06:12:43.497Z,74.06
2019-05-17T06:15:12.966Z,73.53
2019-05-17T06:17:42.797Z,72.29
2019-05-17T06:20:12.746Z,72.14
2019-05-17T06:22:42.941Z,72.13
2019-05-17T06:25:15.031Z,72.76
2019-05-17T06:27:42.724Z,72.91
2019-05-17T06:30:12.525Z,73.26
2019-05-17T06:32:43.319Z,73.02
2019-05-17T06:35:13.010Z,73.34
2019-05-17T06:37:42.609Z,74.04
2019-05-17T06:40:12.955Z,73.63
2019-05-17T06:42:45.308Z,73.07
2019-05-17T06:45:13.314Z,72.96
2019-05-17T06:47:42.839Z,72.68
2019-05-17T06:50:14.271Z,72.72
2019-05-17T06:52:43.753Z,72.09
2019-05-17T06:55:13.267Z,71.83
2019-05-17T06:57:43.158Z,71.73
2019-05-17T07:00:19.653Z,72.35
2019-05-17T07:02:43.927Z,71.32
2019-05-17T07:05:14.343Z,71.13
2019-05-17T07:07:43.182Z,70.76
2019-05-17T07:10:12.947Z,70.80
2019-05-17T07:12:54.910Z,70.97
2019-05-17T07:15:12.664Z,71.05
2019-05-17T07:17:41.441Z,71.01
2019-05-17T07:20:10.950Z,71.08
2019-05-17T07:22:40.867Z,70.36
2019-05-17T07:25:10.747Z,70.53
2019-05-17T07:27:44.789Z,70.00
2019-05-17T07:30:11.225Z,69.03
2019-05-17T07:32:40.835Z,68.51
2019-05-17T07:35:11.113Z,68.72
2019-05-17T07:37:40.645Z,67.28
2019-05-17T07:40:11.190Z,66.92
2019-05-17T07:42:40.148Z,66.19
2019-05-17T07:45:11.286Z,66.09
2019-05-17T07:47:40.604Z,66.20
2019-05-17T07:50:11.276Z,65.63
2019-05-17T07:52:40.490Z,64.52
2019-05-17T07:55:10.817Z,64.83
2019-05-17T07:57:40.944Z,64.15
2019-05-17T08:00:10.738Z,64.29
2019-05-17T08:02:40.257Z,63.95
2019-05-17T08:05:11.044Z,64.50
2019-05-17T08:07:40.826Z,64.68
2019-05-17T08:10:11.237Z,64.93
2019-05-17T08:12:40.903Z,63.54
2019-05-17T08:15:11.230Z,63.80
2019-05-17T08:17:40.214Z,64.35
2019-05-17T08:20:10.695Z,64.88
2019-05-17T08:22:40.127Z,65.54
2019-05-17T08:25:10.628Z,64.82
2019-05-17T08:27:40.462Z,64.68
2019-05-17T08:30:10.749Z,64.84
2019-05-17T08:32:40.392Z,64.78
2019-05-17T08:35:11.353Z,65.17
2019-05-17T08:37:42.287Z,64.35
2019-05-17T08:40:11.030Z,63.86
2019-05-17T08:42:40.701Z,64.75
2019-05-17T08:45:09.994Z,64.91
2019-05-17T08:47:39.638Z,64.78
2019-05-17T08:50:11.225Z,65.14
2019-05-17T08:52:40.511Z,65.09
2019-05-17T08:55:10.037Z,64.98
2019-05-17T08:57:40.137Z,65.30
2019-05-17T09:00:10.924Z,65.38
2019-05-17T09:02:40.991Z,64.95
2019-05-17T09:05:10.724Z,64.96
2019-05-17T09:07:40.130Z,65.27
2019-05-17T09:10:10.371Z,65.07
2019-05-17T09:12:40.968Z,65.37
2019-05-17T09:15:10.390Z,65.61
2019-05-17T09:17:39.803Z,64.75
2019-05-17T09:20:10.783Z,63.69
2019-05-17T09:22:40.038Z,63.83
2019-05-17T09:25:13.635Z,64.68
2019-05-17T09:27:40.298Z,65.02
2019-05-17T09:30:10.645Z,64.44
2019-05-17T09:32:40.689Z,63.58
2019-05-17T09:35:10.370Z,65.22
2019-05-17T09:37:41.293Z,66.15
2019-05-17T09:40:10.424Z,65.75
2019-05-17T09:42:41.157Z,65.36
2019-05-17T09:45:10.344Z,67.45
2019-05-17T09:47:39.912Z,66.00
2019-05-17T09:50:10.287Z,65.17
2019-05-17T09:52:40.586Z,64.15
2019-05-17T09:55:10.229Z,64.88
2019-05-17T09:57:41.004Z,66.13
2019-05-17T10:00:10.924Z,66.24
2019-05-17T10:02:40.533Z,66.30
2019-05-17T10:05:10.623Z,67.12
2019-05-17T10:07:40.432Z,66.87
2019-05-17T10:10:10.430Z,66.55
2019-05-17T10:12:40.371Z,66.73
2019-05-17T10:15:10.942Z,66.77
2019-05-17T10:17:39.702Z,66.31
2019-05-17T10:20:10.840Z,65.12
2019-05-17T10:22:40.310Z,65.20
2019-05-17T10:25:09.872Z,64.69
2019-05-17T10:27:40.732Z,65.16
2019-05-17T10:30:10.785Z,64.92
2019-05-17T10:32:40.718Z,65.14
2019-05-17T10:35:10.425Z,65.39
2019-05-17T10:37:40.683Z,64.58
2019-05-17T10:40:11.243Z,63.78
2019-05-17T10:42:40.259Z,63.97
2019-05-17T10:45:11.047Z,63.60
2019-05-17T10:47:40.163Z,62.36
2019-05-17T10:50:10.778Z,61.95
2019-05-17T10:52:40.995Z,61.42
2019-05-17T10:55:10.789Z,62.08
2019-05-17T10:57:39.799Z,62.73
2019-05-17T11:00:10.257Z,62.62
2019-05-17T11:02:39.223Z,64.64
2019-05-17T11:05:10.601Z,61.39
2019-05-17T11:07:39.341Z,62.24
2019-05-17T11:10:11.712Z,60.08
2019-05-17T11:12:39.362Z,58.23
2019-05-17T11:15:11.478Z,56.72
2019-05-17T11:17:38.742Z,57.37
2019-05-17T11:20:09.199Z,57.33
2019-05-17T11:22:38.147Z,58.62
2019-05-17T11:25:08.294Z,58.69
2019-05-17T11:27:37.160Z,55.95
2019-05-17T11:30:06.939Z,57.25
2019-05-17T11:32:35.719Z,56.54
2019-05-17T11:35:06.241Z,55.22
2019-05-17T11:37:35.043Z,55.53
2019-05-17T11:40:08.152Z,55.93
2019-05-17T11:42:36.499Z,57.81
2019-05-17T11:45:06.766Z,59.18
2019-05-17T11:47:35.559Z,60.80
2019-05-17T11:50:06.818Z,60.79
2019-05-17T11:52:35.639Z,60.07
2019-05-17T11:55:06.220Z,58.01
2019-05-17T11:57:34.959Z,58.66
2019-05-17T12:00:05.488Z,57.37
2019-05-17T12:02:34.231Z,56.35
2019-05-17T12:05:03.160Z,55.39
2019-05-17T12:07:31.883Z,55.72
2019-05-17T12:10:00.678Z,55.39
2019-05-17T12:12:29.520Z,55.13
2019-05-17T12:14:58.259Z,56.08
2019-05-17T12:17:27.115Z,57.21
2019-05-17T12:19:55.880Z,56.59
2019-05-17T12:22:24.659Z,55.63
2019-05-17T12:24:53.499Z,55.14
2019-05-17T12:27:22.279Z,55.00
2019-05-17T12:29:51.098Z,56.35
2019-05-17T12:32:19.959Z,57.42
2019-05-17T12:34:48.721Z,56.88
2019-05-17T12:37:17.499Z,54.84
2019-05-17T12:39:46.262Z,54.57
2019-05-17T12:42:15.118Z,51.03
2019-05-17T12:44:43.898Z,49.23
2019-05-17T12:47:12.663Z,46.80
2019-05-17T12:49:41.454Z,44.28
2019-05-17T12:52:10.199Z,44.66
2019-05-17T12:54:39.038Z,47.40
2019-05-17T12:57:07.822Z,46.61
2019-05-17T12:59:36.579Z,43.91
2019-05-17T13:02:05.364Z,42.91
2019-05-17T13:04:34.191Z,41.51
2019-05-17T13:07:03.040Z,41.01
2019-05-17T13:09:31.779Z,39.25
2019-05-17T13:12:00.601Z,38.67
2019-05-17T13:14:29.341Z,37.04
2019-05-17T13:16:58.144Z,37.84
2019-05-17T13:19:26.940Z,38.83
2019-05-17T13:21:55.699Z,37.91
2019-05-17T13:24:24.717Z,38.40
2019-05-17T13:26:53.539Z,38.00
2019-05-17T13:29:22.319Z,37.98
2019-05-17T13:31:51.164Z,37.43
2019-05-17T13:34:19.901Z,36.23
2019-05-17T13:36:48.679Z,35.80
2019-05-17T13:39:17.497Z,35.55
2019-05-17T13:41:46.299Z,36.68
2019-05-17T13:44:15.081Z,36.03
2019-05-17T13:46:43.856Z,35.41
2019-05-17T13:49:12.620Z,36.26
2019-05-17T13:51:41.379Z,34.39
2019-05-17T13:54:10.150Z,37.68
2019-05-17T13:56:38.920Z,38.68
2019-05-17T13:59:07.682Z,38.85
2019-05-17T14:01:36.619Z,38.39
2019-05-17T14:04:05.564Z,37.91
2019-05-17T14:06:34.443Z,38.29
2019-05-17T14:09:03.266Z,38.21
2019-05-17T14:11:32.119Z,36.20
2019-05-17T14:14:00.900Z,36.49
2019-05-17T14:16:33.937Z,35.23
2019-05-17T14:19:00.202Z,34.19
2019-05-17T14:21:28.971Z,34.22
2019-05-17T14:23:57.780Z,34.05
2019-05-17T14:26:26.579Z,33.60
2019-05-17T14:28:55.409Z,33.03
2019-05-17T14:31:24.220Z,31.78
2019-05-17T14:33:53.000Z,29.73
2019-05-17T14:36:21.789Z,30.09
2019-05-17T14:38:50.579Z,31.54
2019-05-17T14:41:19.380Z,30.73
2019-05-17T14:43:48.200Z,29.77
2019-05-17T14:46:17.000Z,28.91
2019-05-17T14:48:45.759Z,29.37
2019-05-17T14:51:14.623Z,28.93
2019-05-17T14:53:43.427Z,29.83
2019-05-17T14:56:12.245Z,30.49
2019-05-17T14:58:41.020Z,30.73
2019-05-17T15:01:09.799Z,30.56
2019-05-17T15:03:38.600Z,31.09
2019-05-17T15:06:07.381Z,30.06
2019-05-17T15:08:36.181Z,30.91
2019-05-17T15:11:04.999Z,31.47
2019-05-17T15:13:33.805Z,32.22
2019-05-17T15:16:02.559Z,30.50
2019-05-17T15:18:31.360Z,31.14
2019-05-17T15:21:00.122Z,30.06
2019-05-17T15:23:28.981Z,30.81
2019-05-17T15:25:57.764Z,29.87
2019-05-17T15:28:26.545Z,30.11
2019-05-17T15:30:55.402Z,28.80
2019-05-17T15:33:24.159Z,28.65
2019-05-17T15:35:53.000Z,28.69
2019-05-17T15:38:21.800Z,29.21
2019-05-17T15:40:50.560Z,29.27
2019-05-17T15:43:19.437Z,28.36
2019-05-17T15:45:48.279Z,28.63
2019-05-17T15:48:17.042Z,28.31
2019-05-17T15:50:46.448Z,28.92
2019-05-17T15:53:15.219Z,28.37
2019-05-17T15:55:43.979Z,29.04
2019-05-17T15:58:12.783Z,29.11
2019-05-17T16:00:41.560Z,29.63
2019-05-17T16:03:10.378Z,31.26
2019-05-17T16:05:39.163Z,31.27
2019-05-17T16:08:07.960Z,31.92
2019-05-17T16:10:36.764Z,32.56
2019-05-17T16:13:05.559Z,33.45
2019-05-17T16:15:34.299Z,33.72
2019-05-17T16:18:03.100Z,34.73
2019-05-17T16:20:31.879Z,34.62
2019-05-17T16:23:00.718Z,35.56
2019-05-17T16:25:29.459Z,36.58
2019-05-17T16:27:58.219Z,35.38
2019-05-17T16:30:27.039Z,36.21
2019-05-17T16:32:55.859Z,36.62
2019-05-17T16:35:24.639Z,36.46
2019-05-17T16:37:53.380Z,38.00
2019-05-17T16:40:22.180Z,37.81
2019-05-17T16:42:50.959Z,38.09
2019-05-17T16:45:19.829Z,37.68
2019-05-17T16:47:48.607Z,37.77
2019-05-17T16:50:17.959Z,37.83
2019-05-17T16:52:46.799Z,39.21
2019-05-17T16:55:15.700Z,39.63
2019-05-17T16:57:44.480Z,39.67
2019-05-17T17:00:34.289Z,39.85
2019-05-17T17:03:03.194Z,40.54
2019-05-17T17:05:32.039Z,41.45
2019-05-17T17:08:00.826Z,41.71
2019-05-17T17:10:29.806Z,41.78
2019-05-17T17:12:58.658Z,41.51
2019-05-17T17:15:27.399Z,41.96
2019-05-17T17:17:56.206Z,42.32
2019-05-17T17:20:25.479Z,42.10
2019-05-17T17:22:54.219Z,41.89
2019-05-17T17:25:23.079Z,42.14
2019-05-17T17:27:51.938Z,42.36
2019-05-17T17:30:21.419Z,43.30
2019-05-17T17:32:50.240Z,43.48
2019-05-17T17:35:18.999Z,44.34
2019-05-17T17:37:47.789Z,44.47
2019-05-17T17:40:19.566Z,45.04
2019-05-17T17:42:48.408Z,45.57
2019-05-17T17:45:19.618Z,45.32
2019-05-17T17:47:48.335Z,45.52
2019-05-17T17:50:17.720Z,45.06
2019-05-17T17:52:49.460Z,45.92
2019-05-17T17:55:18.328Z,46.44
2019-05-17T17:57:47.103Z,48.93
2019-05-17T18:00:17.201Z,50.85
2019-05-17T18:02:45.926Z,51.33
2019-05-17T18:05:15.681Z,51.16
2019-05-17T18:07:44.459Z,52.72
2019-05-17T18:10:25.007Z,54.35
2019-05-17T18:12:53.718Z,55.53
2019-05-17T18:15:31.292Z,56.19
2019-05-17T18:18:00.259Z,57.02
2019-05-17T18:20:29.019Z,57.69
2019-05-17T18:22:57.846Z,58.89
2019-05-17T18:25:26.639Z,59.85
2019-05-17T18:27:55.409Z,60.64
2019-05-17T18:30:24.265Z,60.72
2019-05-17T18:32:53.059Z,61.30
2019-05-17T18:35:21.899Z,61.36
2019-05-17T18:37:50.641Z,61.47
2019-05-17T18:40:19.409Z,61.66
2019-05-17T18:42:48.239Z,61.79
2019-05-17T18:45:17.200Z,62.04
2019-05-17T18:47:45.959Z,62.18
2019-05-17T18:50:15.339Z,61.80
2019-05-17T18:52:44.107Z,61.13
2019-05-17T18:55:13.342Z,61.15
2019-05-17T18:57:42.122Z,61.07
2019-05-17T19:00:11.599Z,61.36
2019-05-17T19:02:40.442Z,61.21
2019-05-17T19:05:10.402Z,61.19
2019-05-17T19:07:39.139Z,61.25
2019-05-17T19:10:09.441Z,61.49
2019-05-17T19:12:38.222Z,61.21
2019-05-17T19:15:08.760Z,61.16
2019-05-17T19:17:37.520Z,61.15
2019-05-17T19:20:07.782Z,61.40
2019-05-17T19:22:36.620Z,61.47
2019-05-17T19:25:08.440Z,61.59
2019-05-17T19:27:37.219Z,61.62
2019-05-17T19:30:07.699Z,61.65
2019-05-17T19:32:36.600Z,61.90
2019-05-17T19:35:08.536Z,62.28
2019-05-17T19:37:37.282Z,62.54
2019-05-17T19:40:08.040Z,62.25
2019-05-17T19:42:36.882Z,62.10
2019-05-17T19:45:10.059Z,62.33
2019-05-17T19:47:38.819Z,62.73
2019-05-17T19:50:08.433Z,62.70
2019-05-17T19:52:37.200Z,62.69
2019-05-17T19:55:08.120Z,62.58
2019-05-17T19:57:37.199Z,63.07
2019-05-17T20:00:10.191Z,62.99
2019-05-17T20:02:39.002Z,63.25
2019-05-17T20:05:08.435Z,63.25
2019-05-17T20:07:39.174Z,63.56
2019-05-17T20:10:08.955Z,63.94
2019-05-17T20:12:37.720Z,64.45
2019-05-17T20:15:17.431Z,64.93
2019-05-17T20:17:38.761Z,65.12
2019-05-17T20:20:08.359Z,65.70
2019-05-17T20:22:37.283Z,65.73
2019-05-17T20:25:06.966Z,65.84
2019-05-17T20:27:35.940Z,66.04
2019-05-17T20:30:09.687Z,66.39
2019-05-17T20:32:38.462Z,66.40
2019-05-17T20:35:08.920Z,66.56
2019-05-17T20:37:37.683Z,66.32
2019-05-17T20:40:08.359Z,66.78
2019-05-17T20:42:37.160Z,66.98
2019-05-17T20:45:15.319Z,67.78
2019-05-17T20:47:44.151Z,67.80
2019-05-17T20:50:14.500Z,67.51
2019-05-17T20:52:43.299Z,67.39
2019-05-17T20:55:12.398Z,67.57
2019-05-17T20:57:41.179Z,67.97
2019-05-17T21:00:11.272Z,68.38
2019-05-17T21:02:40.039Z,68.55
2019-05-17T21:05:09.415Z,67.67
2019-05-17T21:07:38.242Z,68.52
2019-05-17T21:10:07.665Z,68.18
2019-05-17T21:12:36.407Z,68.29
2019-05-17T21:15:07.123Z,68.92
2019-05-17T21:17:35.879Z,69.03
2019-05-17T21:20:06.744Z,68.39
2019-05-17T21:22:35.539Z,69.11
2019-05-17T21:25:06.379Z,68.77
2019-05-17T21:27:35.239Z,67.65
2019-05-17T21:30:04.284Z,67.49
2019-05-17T21:32:33.051Z,68.12
2019-05-17T21:35:01.880Z,69.57
2019-05-17T21:37:30.640Z,69.19
2019-05-17T21:39:59.372Z,69.16
2019-05-17T21:42:28.161Z,68.72
2019-05-17T21:44:56.904Z,69.15
2019-05-17T21:47:25.760Z,69.60
2019-05-17T21:49:54.521Z,69.25
2019-05-17T21:52:23.279Z,69.31
2019-05-17T21:54:52.120Z,68.89
2019-05-17T21:57:20.900Z,69.67
2019-05-17T21:59:49.658Z,69.79
2019-05-17T22:02:18.441Z,70.59
2019-05-17T22:04:47.200Z,70.29
2019-05-17T22:07:16.039Z,71.15
2019-05-17T22:09:44.800Z,71.45
2019-05-17T22:12:14.767Z,71.55
2019-05-17T22:14:43.559Z,71.27
2019-05-17T22:17:12.322Z,71.65
2019-05-17T22:19:41.086Z,70.55
2019-05-17T22:22:09.899Z,71.68
2019-05-17T22:24:38.661Z,72.67
2019-05-17T22:27:07.509Z,72.96
2019-05-17T22:29:36.333Z,72.64
2019-05-17T22:32:05.125Z,72.43
2019-05-17T22:34:33.959Z,73.12
2019-05-17T22:37:02.701Z,74.21
2019-05-17T22:39:31.458Z,74.06
2019-05-17T22:42:00.241Z,74.08
2019-05-17T22:44:29.019Z,74.30
2019-05-17T22:46:57.860Z,74.07
2019-05-17T22:49:26.641Z,73.68
2019-05-17T22:51:55.420Z,73.66
2019-05-17T22:54:24.287Z,73.10
2019-05-17T22:56:53.040Z,72.46
2019-05-17T22:59:21.799Z,71.95
2019-05-17T23:01:50.586Z,71.45
2019-05-17T23:04:19.339Z,72.12
2019-05-17T23:06:48.184Z,72.18
2019-05-17T23:09:16.959Z,72.53
2019-05-17T23:11:45.740Z,72.68
2019-05-17T23:14:14.560Z,73.77
2019-05-17T23:16:51.453Z,73.38
2019-05-17T23:19:13.820Z,72.42
2019-05-17T23:21:42.602Z,73.73
2019-05-17T23:24:11.455Z,73.25
2019-05-17T23:26:40.303Z,71.70
2019-05-17T23:29:09.060Z,72.52
2019-05-17T23:31:37.800Z,72.96
2019-05-17T23:34:06.580Z,73.70
2019-05-17T23:36:35.360Z,73.84
2019-05-17T23:39:05.880Z,74.73
2019-05-17T23:41:34.653Z,73.96
2019-05-17T23:44:03.439Z,74.59
2019-05-17T23:46:32.240Z,74.14
2019-05-17T23:49:01.021Z,74.08
2019-05-17T23:51:29.799Z,73.94
2019-05-17T23:53:58.599Z,73.07
2019-05-17T23:56:27.340Z,71.92
2019-05-17T23:58:56.181Z,72.30
